createdAt,value
2022-09-06T00:01:52.421Z,26.50
2022-09-06T00:04:20.523Z,26.50
2022-09-06T00:06:48.192Z,26.50
2022-09-06T00:09:15.784Z,26.50
2022-09-06T00:11:43.844Z,26.50
2022-09-06T00:14:11.383Z,26.50
2022-09-06T00:16:40.895Z,26.50
2022-09-06T00:19:09.260Z,26.50
2022-09-06T00:21:36.795Z,26.40
2022-09-06T00:24:04.583Z,26.40
2022-09-06T00:26:32.547Z,26.40
2022-09-06T00:29:00.140Z,26.40
2022-09-06T00:31:28.098Z,26.40
2022-09-06T00:33:56.047Z,26.40
2022-09-06T00:36:23.711Z,26.40
2022-09-06T00:38:51.336Z,26.40
2022-09-06T00:41:19.400Z,26.40
2022-09-06T00:43:47.031Z,26.40
2022-09-06T00:46:25.571Z,26.40
2022-09-06T00:49:02.318Z,26.40
2022-09-06T00:51:30.546Z,26.30
2022-09-06T00:53:58.875Z,26.30
2022-09-06T00:56:26.638Z,26.30
2022-09-06T00:58:54.960Z,26.30
2022-09-06T01:01:23.044Z,26.30
2022-09-06T01:03:50.726Z,26.40
2022-09-06T01:06:18.387Z,26.40
2022-09-06T01:08:52.193Z,26.30
2022-09-06T01:11:25.891Z,26.30
2022-09-06T01:14:14.069Z,26.30
2022-09-06T01:17:00.312Z,26.30
2022-09-06T01:19:31.390Z,26.30
2022-09-06T01:22:14.758Z,26.30
2022-09-06T01:25:19.205Z,26.30
2022-09-06T01:27:47.270Z,26.30
2022-09-06T01:30:17.166Z,26.20
2022-09-06T01:32:57.169Z,26.20
2022-09-06T01:35:25.085Z,26.20
2022-09-06T01:37:52.704Z,26.20
2022-09-06T01:40:20.398Z,26.20
2022-09-06T01:42:49.162Z,26.20
2022-09-06T01:45:21.703Z,26.20
2022-09-06T01:47:56.277Z,26.20
2022-09-06T01:50:47.756Z,26.10
2022-09-06T01:53:18.686Z,26.20
2022-09-06T01:55:56.002Z,26.10
2022-09-06T01:58:26.736Z,26.10
2022-09-06T02:01:17.954Z,26.10
2022-09-06T02:03:59.250Z,26.10
2022-09-06T02:06:40.229Z,26.10
2022-09-06T02:09:13.341Z,26.10
2022-09-06T02:11:47.420Z,26.10
2022-09-06T02:14:35.609Z,26.10
2022-09-06T02:17:04.314Z,26.10
2022-09-06T02:19:45.947Z,26.10
2022-09-06T02:22:16.015Z,26.00
2022-09-06T02:24:45.604Z,26.00
2022-09-06T02:27:13.632Z,26.00
2022-09-06T02:29:41.701Z,26.10
2022-09-06T02:32:09.650Z,26.00
2022-09-06T02:34:38.158Z,26.00
2022-09-06T02:37:06.356Z,26.00
2022-09-06T02:39:34.274Z,26.00
2022-09-06T02:42:01.880Z,26.00
2022-09-06T02:44:29.584Z,26.00
2022-09-06T02:46:57.538Z,26.00
2022-09-06T02:49:25.119Z,26.00
2022-09-06T02:51:52.712Z,26.00
2022-09-06T02:54:20.708Z,25.90
2022-09-06T02:56:52.093Z,25.90
2022-09-06T02:59:20.492Z,25.90
2022-09-06T03:01:48.026Z,25.90
2022-09-06T03:04:15.706Z,25.90
2022-09-06T03:06:43.694Z,25.90
2022-09-06T03:09:11.250Z,25.90
2022-09-06T03:11:38.790Z,25.90
2022-09-06T03:14:06.847Z,25.80
2022-09-06T03:16:34.976Z,25.90
2022-09-06T03:19:02.704Z,25.90
2022-09-06T03:21:30.689Z,25.80
2022-09-06T03:23:59.550Z,25.80
2022-09-06T03:26:28.163Z,25.90
2022-09-06T03:28:56.265Z,25.80
2022-09-06T03:31:23.828Z,25.80
2022-09-06T03:33:51.465Z,25.80
2022-09-06T03:36:19.472Z,25.80
2022-09-06T03:38:47.078Z,25.80
2022-09-06T03:41:14.633Z,25.80
2022-09-06T03:43:42.632Z,25.80
2022-09-06T03:46:10.198Z,25.80
2022-09-06T03:48:37.760Z,25.80
2022-09-06T03:51:05.856Z,25.80
2022-09-06T03:53:33.392Z,25.80
2022-09-06T03:56:01.037Z,25.80
2022-09-06T03:58:30.514Z,25.80
2022-09-06T04:01:04.641Z,25.80
2022-09-06T04:03:33.168Z,25.80
2022-09-06T04:06:01.135Z,25.80
2022-09-06T04:08:29.150Z,25.70
2022-09-06T04:10:57.873Z,25.70
2022-09-06T04:13:26.138Z,25.70
2022-09-06T04:15:53.872Z,25.70
2022-09-06T04:18:22.585Z,25.70
2022-09-06T04:20:51.361Z,25.70
2022-09-06T04:23:19.327Z,25.60
2022-09-06T04:25:48.100Z,25.70
2022-09-06T04:28:16.276Z,25.70
2022-09-06T04:30:44.131Z,25.70
2022-09-06T04:33:12.125Z,25.70
2022-09-06T04:35:39.659Z,25.70
2022-09-06T04:38:07.299Z,25.70
2022-09-06T04:40:35.233Z,25.70
2022-09-06T04:43:02.890Z,25.60
2022-09-06T04:45:30.536Z,25.60
2022-09-06T04:47:58.600Z,25.60
2022-09-06T04:50:26.332Z,25.60
2022-09-06T04:53:05.467Z,25.60
2022-09-06T04:55:34.205Z,25.60
2022-09-06T04:58:01.915Z,25.60
2022-09-06T05:00:30.515Z,25.60
2022-09-06T05:02:58.749Z,25.60
2022-09-06T05:05:26.338Z,25.60
2022-09-06T05:07:54.412Z,25.60
2022-09-06T05:10:23.367Z,25.60
2022-09-06T05:12:51.922Z,25.50
2022-09-06T05:15:20.208Z,25.50
2022-09-06T05:17:48.089Z,25.50
2022-09-06T05:20:15.671Z,25.50
2022-09-06T05:22:43.452Z,25.50
2022-09-06T05:25:11.683Z,25.50
2022-09-06T05:27:39.265Z,25.50
2022-09-06T05:30:07.221Z,25.50
2022-09-06T05:32:35.132Z,25.50
2022-09-06T05:35:02.848Z,25.50
2022-09-06T05:37:30.464Z,25.40
2022-09-06T05:40:00.398Z,25.50
2022-09-06T05:42:28.109Z,25.50
2022-09-06T05:44:55.721Z,25.50
2022-09-06T05:47:23.589Z,25.50
2022-09-06T05:49:52.196Z,25.40
2022-09-06T05:52:20.101Z,25.50
2022-09-06T05:54:47.983Z,25.40
2022-09-06T05:57:15.870Z,25.50
2022-09-06T05:59:43.465Z,25.40
2022-09-06T06:02:11.041Z,25.40
2022-09-06T06:04:39.073Z,25.40
2022-09-06T06:07:06.837Z,25.40
2022-09-06T06:09:34.452Z,25.40
2022-09-06T06:12:02.501Z,25.40
2022-09-06T06:14:30.148Z,25.40
2022-09-06T06:16:57.755Z,25.40
2022-09-06T06:19:26.922Z,25.40
2022-09-06T06:21:56.158Z,25.40
2022-09-06T06:24:24.499Z,25.40
2022-09-06T06:26:52.499Z,25.40
2022-09-06T06:29:20.218Z,25.40
2022-09-06T06:31:47.962Z,25.40
2022-09-06T06:34:16.640Z,25.40
2022-09-06T06:36:44.636Z,25.40
2022-09-06T06:39:12.333Z,25.40
2022-09-06T06:41:40.225Z,25.40
2022-09-06T06:44:17.321Z,25.30
2022-09-06T06:46:45.256Z,25.30
2022-09-06T06:49:12.864Z,25.30
2022-09-06T06:51:40.681Z,25.40
2022-09-06T06:54:08.562Z,25.40
2022-09-06T06:56:37.443Z,25.40
2022-09-06T06:59:05.941Z,25.40
2022-09-06T07:01:34.555Z,25.40
2022-09-06T07:04:02.437Z,25.40
2022-09-06T07:09:19.526Z,25.40
2022-09-06T07:11:49.113Z,25.40
2022-09-06T07:14:17.252Z,25.40
2022-09-06T07:16:45.473Z,25.40
2022-09-06T07:22:04.507Z,25.40
2022-09-06T07:24:33.789Z,25.40
2022-09-06T07:29:49.440Z,25.40
2022-09-06T07:32:17.322Z,25.40
2022-09-06T07:34:44.979Z,25.40
2022-09-06T07:37:12.577Z,25.40
2022-09-06T07:39:41.587Z,25.40
2022-09-06T07:42:09.251Z,25.50
2022-09-06T07:44:36.857Z,25.50
2022-09-06T07:55:29.990Z,25.70
2022-09-06T07:57:57.885Z,25.70
2022-09-06T08:00:25.573Z,25.70
2022-09-06T08:02:53.763Z,25.70
2022-09-06T08:10:56.871Z,25.80
2022-09-06T08:13:24.860Z,25.80
2022-09-06T08:16:02.066Z,25.80
2022-09-06T08:18:30.155Z,25.80
2022-09-06T08:21:07.999Z,25.80
2022-09-06T08:23:42.904Z,25.80
2022-09-06T08:26:10.998Z,25.80
2022-09-06T08:28:38.967Z,25.80
2022-09-06T08:31:10.684Z,25.80
2022-09-06T08:33:39.188Z,25.80
2022-09-06T08:36:07.623Z,25.80
2022-09-06T08:38:35.342Z,25.90
2022-09-06T08:41:08.188Z,25.80
2022-09-06T08:43:36.885Z,25.90
2022-09-06T08:46:04.892Z,25.90
2022-09-06T08:48:33.784Z,25.90
2022-09-06T08:51:14.287Z,25.90
2022-09-06T08:53:48.220Z,25.90
2022-09-06T08:56:21.456Z,25.90
2022-09-06T08:59:12.149Z,25.90
2022-09-06T09:01:45.895Z,25.80
2022-09-06T09:04:15.756Z,25.90
2022-09-06T09:06:45.126Z,25.90
2022-09-06T09:09:15.084Z,25.90
2022-09-06T09:11:43.782Z,25.90
2022-09-06T09:14:20.484Z,25.90
2022-09-06T09:16:52.699Z,25.90
2022-09-06T09:19:20.200Z,25.90
2022-09-06T09:21:48.262Z,26.00
2022-09-06T09:24:16.222Z,26.00
2022-09-06T09:26:52.097Z,25.90
2022-09-06T09:29:23.992Z,26.00
2022-09-06T09:31:55.783Z,26.00
2022-09-06T09:34:31.644Z,26.00
2022-09-06T09:40:15.294Z,26.10
2022-09-06T09:42:44.289Z,26.10
2022-09-06T09:45:21.386Z,26.10
2022-09-06T09:47:49.162Z,26.10
2022-09-06T09:50:37.380Z,26.10
2022-09-06T09:53:09.733Z,26.20
2022-09-06T09:55:37.870Z,26.20
2022-09-06T09:58:06.639Z,26.20
2022-09-06T10:00:40.303Z,26.20
2022-09-06T10:03:15.536Z,26.20
2022-09-06T10:05:43.867Z,26.30
2022-09-06T10:08:13.248Z,26.30
2022-09-06T10:10:43.095Z,26.20
2022-09-06T10:13:16.816Z,26.10
2022-09-06T10:15:44.934Z,26.10
2022-09-06T10:18:38.841Z,26.00
2022-09-06T10:21:09.346Z,26.00
2022-09-06T10:26:39.441Z,25.90
2022-09-06T10:29:09.950Z,25.80
2022-09-06T10:31:48.249Z,25.80
2022-09-06T10:34:18.865Z,25.80
2022-09-06T10:36:53.110Z,25.80
2022-09-06T10:39:33.282Z,25.80
2022-09-06T10:42:11.356Z,25.70
2022-09-06T10:44:42.158Z,25.80
2022-09-06T10:47:14.449Z,25.80
2022-09-06T10:49:46.814Z,25.80
2022-09-06T10:52:21.849Z,25.80
2022-09-06T10:54:49.446Z,25.80
2022-09-06T11:00:16.976Z,25.70
2022-09-06T11:05:43.459Z,25.70
2022-09-06T11:11:14.090Z,25.80
2022-09-06T11:13:42.042Z,25.80
2022-09-06T11:16:13.566Z,25.80
2022-09-06T11:19:07.385Z,25.80
2022-09-06T11:21:50.722Z,25.80
2022-09-06T11:24:33.548Z,25.80
2022-09-06T11:27:06.729Z,25.80
2022-09-06T11:29:35.115Z,25.80
2022-09-06T11:32:20.055Z,25.80
2022-09-06T11:34:58.295Z,25.80
2022-09-06T11:37:28.150Z,25.80
2022-09-06T11:42:57.220Z,25.80
2022-09-06T11:45:43.603Z,25.80
2022-09-06T11:48:23.664Z,25.80
2022-09-06T11:50:54.334Z,25.80
2022-09-06T11:53:23.953Z,25.80
2022-09-06T11:56:10.001Z,25.80
2022-09-06T11:58:40.600Z,25.80
2022-09-06T12:01:16.714Z,25.80
2022-09-06T12:04:07.604Z,25.80
2022-09-06T12:06:39.141Z,25.90
2022-09-06T12:09:25.716Z,25.90
2022-09-06T12:11:53.725Z,25.80
2022-09-06T12:14:30.076Z,25.90
2022-09-06T12:17:00.915Z,25.90
2022-09-06T12:19:44.608Z,25.80
2022-09-06T12:22:27.783Z,25.80
2022-09-06T12:24:55.805Z,25.90
2022-09-06T12:27:23.393Z,25.90
2022-09-06T12:29:55.195Z,25.90
2022-09-06T12:32:25.742Z,25.90
2022-09-06T12:37:54.785Z,25.90
2022-09-06T12:40:23.266Z,25.90
2022-09-06T12:42:51.639Z,25.90
2022-09-06T12:45:22.873Z,25.90
2022-09-06T12:48:03.949Z,25.90
2022-09-06T12:50:31.912Z,25.90
2022-09-06T12:53:01.762Z,25.90
2022-09-06T12:55:32.958Z,25.90
2022-09-06T12:58:04.980Z,25.90
2022-09-06T13:00:53.441Z,25.90
2022-09-06T13:03:21.285Z,25.90
2022-09-06T13:05:48.974Z,26.00
2022-09-06T13:08:20.587Z,26.00
2022-09-06T13:10:48.538Z,25.90
2022-09-06T13:13:23.530Z,26.00
2022-09-06T13:15:51.837Z,26.00
2022-09-06T13:18:21.927Z,25.90
2022-09-06T13:21:21.242Z,26.00
2022-09-06T13:23:51.075Z,26.00
2022-09-06T13:26:38.317Z,26.00
2022-09-06T13:29:15.631Z,25.90
2022-09-06T13:31:52.098Z,26.00
2022-09-06T13:34:21.008Z,26.00
2022-09-06T13:36:49.544Z,26.00
2022-09-06T13:39:34.066Z,26.00
2022-09-06T13:42:09.898Z,26.00
2022-09-06T13:44:40.287Z,26.00
2022-09-06T13:47:08.265Z,26.00
2022-09-06T13:49:35.906Z,26.00
2022-09-06T13:52:04.914Z,26.00
2022-09-06T13:54:32.899Z,26.00
2022-09-06T13:57:01.855Z,26.00
2022-09-06T13:59:30.602Z,26.00
2022-09-06T14:02:07.239Z,26.10
2022-09-06T14:04:35.948Z,26.00
2022-09-06T14:07:04.107Z,26.10
2022-09-06T14:09:31.870Z,26.10
2022-09-06T14:11:59.857Z,26.10
2022-09-06T14:14:27.560Z,26.10
2022-09-06T14:16:55.153Z,26.10
2022-09-06T14:19:23.485Z,26.10
2022-09-06T14:21:51.059Z,26.10
2022-09-06T14:24:18.835Z,26.10
2022-09-06T14:26:46.902Z,26.10
2022-09-06T14:29:14.467Z,26.10
2022-09-06T14:31:42.020Z,26.20
2022-09-06T14:34:10.278Z,26.20
2022-09-06T14:36:38.003Z,26.20
2022-09-06T14:39:05.828Z,26.20
2022-09-06T14:41:34.090Z,26.20
2022-09-06T14:44:01.725Z,26.10
2022-09-06T14:46:29.971Z,26.20
2022-09-06T14:48:59.426Z,26.20
2022-09-06T14:51:27.135Z,26.20
2022-09-06T14:53:55.865Z,26.20
2022-09-06T14:56:24.021Z,26.20
2022-09-06T14:58:52.050Z,26.20
2022-09-06T15:01:21.246Z,26.20
2022-09-06T15:03:54.572Z,26.20
2022-09-06T15:06:23.144Z,26.20
2022-09-06T15:08:52.847Z,26.30
2022-09-06T15:11:30.498Z,26.30
2022-09-06T15:13:59.026Z,26.30
2022-09-06T15:16:26.708Z,26.30
2022-09-06T15:18:54.903Z,26.30
2022-09-06T15:21:23.402Z,26.30
2022-09-06T15:23:51.604Z,26.30
2022-09-06T15:26:19.344Z,26.30
2022-09-06T15:28:47.897Z,26.20
2022-09-06T15:31:15.922Z,26.20
2022-09-06T15:33:43.651Z,26.30
2022-09-06T15:36:12.029Z,26.20
2022-09-06T15:38:43.888Z,26.10
2022-09-06T15:41:12.983Z,26.10
2022-09-06T15:43:42.351Z,26.20
2022-09-06T15:46:10.297Z,26.20
2022-09-06T15:48:45.968Z,26.10
2022-09-06T15:51:15.034Z,26.20
2022-09-06T15:53:43.410Z,26.20
2022-09-06T15:56:12.923Z,26.10
2022-09-06T15:58:40.783Z,26.10
2022-09-06T16:01:13.249Z,26.10
2022-09-06T16:03:42.847Z,26.20
2022-09-06T16:06:30.369Z,26.20
2022-09-06T16:09:07.070Z,26.20
2022-09-06T16:11:37.010Z,26.20
2022-09-06T16:14:05.871Z,26.20
2022-09-06T16:16:34.914Z,26.10
2022-09-06T16:19:02.651Z,26.10
2022-09-06T16:21:32.465Z,26.10
2022-09-06T16:24:01.095Z,26.10
2022-09-06T16:26:32.796Z,26.10
2022-09-06T16:29:01.253Z,26.20
2022-09-06T16:31:29.664Z,26.10
2022-09-06T16:33:58.140Z,26.10
2022-09-06T16:36:27.130Z,26.10
2022-09-06T16:38:55.978Z,26.10
2022-09-06T16:41:26.860Z,26.20
2022-09-06T16:43:55.519Z,26.20
2022-09-06T16:46:24.771Z,26.10
2022-09-06T16:48:53.267Z,26.10
2022-09-06T16:51:22.336Z,26.10
2022-09-06T16:53:50.203Z,26.10
2022-09-06T16:56:19.214Z,26.10
2022-09-06T16:58:54.385Z,26.00
2022-09-06T17:01:22.492Z,26.10
2022-09-06T17:03:50.834Z,26.00
2022-09-06T17:06:18.887Z,26.00
2022-09-06T17:08:46.849Z,26.10
2022-09-06T17:11:19.311Z,26.10
2022-09-06T17:13:48.335Z,26.10
2022-09-06T17:16:34.948Z,26.00
2022-09-06T17:19:03.253Z,26.20
2022-09-06T17:21:31.350Z,26.30
2022-09-06T17:24:05.445Z,26.40
2022-09-06T17:26:34.542Z,26.40
2022-09-06T17:29:02.154Z,26.50
2022-09-06T17:31:29.962Z,26.50
2022-09-06T17:33:59.814Z,26.60
2022-09-06T17:36:29.828Z,26.60
2022-09-06T17:39:23.388Z,26.60
2022-09-06T17:41:54.595Z,26.60
2022-09-06T17:44:25.306Z,26.70
2022-09-06T17:49:41.658Z,26.70
2022-09-06T17:52:10.062Z,26.70
2022-09-06T17:54:37.723Z,26.80
2022-09-06T17:57:05.310Z,26.80
2022-09-06T17:59:35.730Z,26.80
2022-09-06T18:02:04.610Z,26.80
2022-09-06T18:04:32.918Z,26.80
2022-09-06T18:07:00.602Z,26.80
2022-09-06T18:09:28.609Z,26.80
2022-09-06T18:11:57.285Z,26.90
2022-09-06T18:14:24.865Z,26.90
2022-09-06T18:16:52.668Z,26.90
2022-09-06T18:19:21.303Z,26.90
2022-09-06T18:21:49.159Z,27.00
2022-09-06T18:24:16.998Z,27.00
2022-09-06T18:26:45.134Z,27.00
2022-09-06T18:29:15.147Z,27.00
2022-09-06T18:31:43.599Z,27.00
2022-09-06T18:34:12.690Z,27.00
2022-09-06T18:36:40.617Z,27.10
2022-09-06T18:39:08.196Z,27.10
2022-09-06T18:41:54.578Z,27.10
2022-09-06T18:44:22.592Z,27.10
2022-09-06T18:46:50.884Z,27.10
2022-09-06T18:49:18.653Z,27.10
2022-09-06T18:51:46.640Z,27.10
2022-09-06T18:54:14.856Z,27.10
2022-09-06T18:56:45.100Z,27.20
2022-09-06T18:59:13.410Z,27.10
2022-09-06T19:01:42.953Z,27.20
2022-09-06T19:04:11.155Z,27.20
2022-09-06T19:06:39.764Z,27.20
2022-09-06T19:09:09.487Z,27.20
2022-09-06T19:11:37.496Z,27.20
2022-09-06T19:14:05.742Z,27.20
2022-09-06T19:16:33.889Z,27.20
2022-09-06T19:19:02.785Z,27.20
2022-09-06T19:21:30.442Z,27.20
2022-09-06T19:24:06.461Z,27.20
2022-09-06T19:26:35.726Z,27.20
2022-09-06T19:29:05.295Z,27.30
2022-09-06T19:31:33.996Z,27.30
2022-09-06T19:34:01.950Z,27.30
2022-09-06T19:36:30.322Z,27.30
2022-09-06T19:39:03.696Z,27.30
2022-09-06T19:41:39.754Z,27.30
2022-09-06T19:44:08.882Z,27.30
2022-09-06T19:46:37.804Z,27.30
2022-09-06T19:49:05.591Z,27.30
2022-09-06T19:51:33.362Z,27.40
2022-09-06T19:54:01.263Z,27.30
2022-09-06T19:56:31.901Z,27.30
2022-09-06T19:59:00.863Z,27.30
2022-09-06T20:01:29.761Z,27.30
2022-09-06T20:03:58.870Z,27.40
2022-09-06T20:06:27.551Z,27.30
2022-09-06T20:08:56.243Z,27.30
2022-09-06T20:11:26.016Z,27.30
2022-09-06T20:13:53.965Z,27.30
2022-09-06T20:16:21.719Z,27.30
2022-09-06T20:18:49.670Z,27.40
2022-09-06T20:21:21.233Z,27.40
2022-09-06T20:23:52.758Z,27.40
2022-09-06T20:26:23.177Z,27.40
2022-09-06T20:28:55.043Z,27.40
2022-09-06T20:31:22.735Z,27.40
2022-09-06T20:33:50.350Z,27.40
2022-09-06T20:36:18.721Z,27.40
2022-09-06T20:38:47.165Z,27.40
2022-09-06T20:41:22.944Z,27.40
2022-09-06T20:43:52.084Z,27.40
2022-09-06T20:46:20.930Z,27.40
2022-09-06T20:48:48.921Z,27.40
2022-09-06T20:51:19.492Z,27.40
2022-09-06T20:53:48.317Z,27.40
2022-09-06T20:56:17.639Z,27.40
2022-09-06T20:58:52.800Z,27.40
2022-09-06T21:01:22.989Z,27.30
2022-09-06T21:03:52.520Z,27.30
2022-09-06T21:06:20.726Z,27.30
2022-09-06T21:08:48.908Z,27.20
2022-09-06T21:11:17.319Z,27.20
2022-09-06T21:13:48.285Z,27.20
2022-09-06T21:16:18.345Z,27.20
2022-09-06T21:18:52.347Z,27.20
2022-09-06T21:21:20.056Z,27.20
2022-09-06T21:23:48.341Z,27.10
2022-09-06T21:26:18.836Z,27.10
2022-09-06T21:28:46.904Z,27.10
2022-09-06T21:31:16.288Z,27.10
2022-09-06T21:33:46.375Z,27.10
2022-09-06T21:36:15.041Z,27.10
2022-09-06T21:38:44.296Z,27.00
2022-09-06T21:41:13.003Z,27.00
2022-09-06T21:43:41.350Z,27.00
2022-09-06T21:46:17.104Z,27.00
2022-09-06T21:48:45.906Z,27.00
2022-09-06T21:51:15.128Z,27.00
2022-09-06T21:53:46.824Z,27.00
2022-09-06T21:56:15.867Z,27.00
2022-09-06T21:58:44.783Z,26.90
2022-09-06T22:01:12.645Z,26.90
2022-09-06T22:03:40.693Z,26.90
2022-09-06T22:06:12.880Z,26.90
2022-09-06T22:08:44.136Z,26.90
2022-09-06T22:11:16.569Z,27.00
2022-09-06T22:13:45.171Z,26.90
2022-09-06T22:16:13.602Z,26.90
2022-09-06T22:18:41.593Z,26.90
2022-09-06T22:21:10.657Z,26.90
2022-09-06T22:23:38.722Z,26.80
2022-09-06T22:26:08.639Z,26.80
2022-09-06T22:28:36.818Z,26.80
2022-09-06T22:31:05.361Z,26.80
2022-09-06T22:33:33.041Z,26.80
2022-09-06T22:36:01.739Z,26.80
2022-09-06T22:38:29.876Z,26.80
2022-09-06T22:40:58.659Z,26.80
2022-09-06T22:43:26.696Z,26.80
2022-09-06T22:45:54.979Z,26.80
2022-09-06T22:48:22.650Z,26.80
2022-09-06T22:50:50.739Z,26.70
2022-09-06T22:53:19.299Z,26.70
2022-09-06T22:55:50.118Z,26.70
2022-09-06T22:58:18.343Z,26.70
2022-09-06T23:00:45.989Z,26.70
2022-09-06T23:03:13.708Z,26.70
2022-09-06T23:05:41.673Z,26.70
2022-09-06T23:08:09.211Z,26.60
2022-09-06T23:10:43.706Z,26.70
2022-09-06T23:13:11.631Z,26.70
2022-09-06T23:15:41.049Z,26.60
2022-09-06T23:18:08.840Z,26.60
2022-09-06T23:20:37.439Z,26.60
2022-09-06T23:23:05.525Z,26.60
2022-09-06T23:25:36.551Z,26.60
2022-09-06T23:28:04.767Z,26.60
2022-09-06T23:30:32.406Z,26.60
2022-09-06T23:33:00.030Z,26.60
2022-09-06T23:35:27.940Z,26.60
2022-09-06T23:37:55.801Z,26.60
2022-09-06T23:40:23.377Z,26.50
2022-09-06T23:42:51.315Z,26.50
2022-09-06T23:45:18.905Z,26.50
2022-09-06T23:47:46.730Z,26.50
2022-09-06T23:50:15.471Z,26.50
2022-09-06T23:52:43.043Z,26.50
2022-09-06T23:55:10.707Z,26.50
2022-09-06T23:57:38.597Z,26.40
